createdAt,value
2022-08-04T00:01:53.906Z,22.15
2022-08-04T00:04:44.585Z,22.01
2022-08-04T00:07:44.294Z,21.95
2022-08-04T00:10:17.525Z,21.76
2022-08-04T00:12:50.682Z,21.67
2022-08-04T00:15:20.165Z,21.58
2022-08-04T00:18:17.615Z,21.44
2022-08-04T00:20:46.121Z,21.47
2022-08-04T00:23:16.671Z,21.49
2022-08-04T00:25:44.793Z,21.43
2022-08-04T00:28:13.791Z,21.41
2022-08-04T00:30:42.867Z,21.42
2022-08-04T00:33:10.933Z,21.38
2022-08-04T00:35:40.408Z,21.33
2022-08-04T00:38:10.658Z,21.31
2022-08-04T00:40:55.725Z,21.27
2022-08-04T00:43:37.006Z,21.27
2022-08-04T00:46:39.544Z,21.26
2022-08-04T00:49:30.155Z,21.23
2022-08-04T00:52:31.690Z,21.21
2022-08-04T00:55:43.292Z,21.20
2022-08-04T00:58:56.066Z,21.19
2022-08-04T01:01:48.747Z,21.17
2022-08-04T01:04:46.196Z,21.16
2022-08-04T01:07:49.686Z,21.12
2022-08-04T01:10:24.514Z,21.12
2022-08-04T01:13:17.414Z,21.08
2022-08-04T01:16:02.369Z,21.06
2022-08-04T01:18:46.662Z,21.06
2022-08-04T01:22:14.315Z,21.02
2022-08-04T01:25:04.615Z,20.98
2022-08-04T01:28:08.746Z,20.95
2022-08-04T01:30:42.245Z,20.95
2022-08-04T01:33:14.352Z,20.91
2022-08-04T01:35:51.643Z,20.87
2022-08-04T01:38:30.488Z,20.84
2022-08-04T01:41:05.228Z,20.85
2022-08-04T01:43:40.481Z,20.82
2022-08-04T01:46:16.053Z,20.77
2022-08-04T01:48:47.066Z,20.77
2022-08-04T01:51:14.911Z,20.76
2022-08-04T01:53:44.936Z,20.75
2022-08-04T01:56:13.018Z,20.72
2022-08-04T01:58:41.627Z,20.71
2022-08-04T02:01:12.458Z,20.64
2022-08-04T02:04:18.417Z,20.64
2022-08-04T02:07:19.980Z,20.56
2022-08-04T02:10:29.295Z,20.53
2022-08-04T02:13:08.551Z,20.54
2022-08-04T02:15:44.673Z,20.52
2022-08-04T02:18:48.206Z,20.50
2022-08-04T02:21:20.374Z,20.54
2022-08-04T02:24:01.025Z,20.51
2022-08-04T02:26:32.120Z,20.52
2022-08-04T02:29:21.502Z,20.50
2022-08-04T02:31:57.938Z,20.42
2022-08-04T02:35:03.787Z,20.34
2022-08-04T02:37:35.879Z,20.31
2022-08-04T02:40:06.870Z,20.30
2022-08-04T02:42:35.226Z,20.30
2022-08-04T02:45:06.824Z,20.28
2022-08-04T02:48:23.687Z,20.26
2022-08-04T02:50:28.844Z,20.21
2022-08-04T02:53:02.808Z,20.21
2022-08-04T02:55:31.925Z,20.23
2022-08-04T02:58:03.933Z,20.19
2022-08-04T03:00:32.015Z,20.19
2022-08-04T03:02:59.255Z,20.16
2022-08-04T03:05:57.751Z,20.10
2022-08-04T03:09:01.594Z,20.06
2022-08-04T03:12:20.803Z,20.03
2022-08-04T03:15:17.844Z,20.07
2022-08-04T03:18:00.254Z,20.07
2022-08-04T03:20:49.645Z,20.07
2022-08-04T03:24:15.934Z,20.07
2022-08-04T03:27:12.545Z,20.08
2022-08-04T03:30:16.120Z,20.11
2022-08-04T03:33:25.533Z,20.09
2022-08-04T03:36:31.767Z,20.08
2022-08-04T03:39:10.978Z,20.11
2022-08-04T03:42:32.659Z,20.12
2022-08-04T03:45:24.445Z,20.17
2022-08-04T03:48:24.824Z,20.20
2022-08-04T03:51:32.510Z,20.25
2022-08-04T03:54:46.859Z,20.23
2022-08-04T03:57:44.294Z,20.23
2022-08-04T04:00:25.803Z,20.26
2022-08-04T04:03:35.097Z,20.23
2022-08-04T04:06:40.240Z,20.23
2022-08-04T04:10:09.654Z,20.18
2022-08-04T04:12:58.558Z,20.20
2022-08-04T04:15:50.118Z,20.24
2022-08-04T04:19:01.912Z,20.32
2022-08-04T04:22:04.687Z,20.38
2022-08-04T04:24:38.005Z,20.47
2022-08-04T04:28:44.488Z,20.52
2022-08-04T04:31:27.158Z,20.63
2022-08-04T04:34:41.737Z,20.71
2022-08-04T04:37:26.318Z,20.77
2022-08-04T04:39:56.654Z,20.84
2022-08-04T04:42:51.546Z,20.87
2022-08-04T04:46:06.117Z,20.91
2022-08-04T04:49:08.694Z,20.95
2022-08-04T04:51:55.576Z,20.98
2022-08-04T04:54:37.666Z,21.05
2022-08-04T04:57:23.266Z,21.11
2022-08-04T05:00:13.734Z,21.20
2022-08-04T05:03:14.604Z,21.26
2022-08-04T05:06:07.977Z,21.34
2022-08-04T05:08:54.466Z,21.44
2022-08-04T05:11:43.871Z,21.51
2022-08-04T05:14:40.948Z,21.54
2022-08-04T05:17:33.348Z,21.67
2022-08-04T05:20:13.275Z,21.75
2022-08-04T05:22:55.061Z,21.77
2022-08-04T05:25:26.535Z,21.86
2022-08-04T05:28:05.236Z,21.88
2022-08-04T05:30:48.663Z,21.97
2022-08-04T05:33:29.146Z,22.01
2022-08-04T05:36:23.447Z,22.04
2022-08-04T05:38:55.663Z,22.09
2022-08-04T05:41:24.123Z,22.16
2022-08-04T05:44:02.299Z,22.26
2022-08-04T05:46:31.378Z,22.32
2022-08-04T05:48:58.582Z,22.38
2022-08-04T05:51:28.172Z,22.44
2022-08-04T05:53:56.883Z,22.52
2022-08-04T05:56:25.041Z,22.58
2022-08-04T05:58:54.402Z,22.63
2022-08-04T06:01:24.626Z,22.66
2022-08-04T06:03:54.001Z,22.73
2022-08-04T06:06:23.824Z,22.84
2022-08-04T06:08:56.288Z,22.92
2022-08-04T06:11:29.210Z,23.00
2022-08-04T06:14:05.176Z,23.06
2022-08-04T06:16:47.024Z,23.14
2022-08-04T06:20:01.126Z,23.22
2022-08-04T06:22:13.821Z,23.29
2022-08-04T06:24:48.248Z,23.38
2022-08-04T06:27:17.539Z,23.49
2022-08-04T06:29:51.634Z,23.61
2022-08-04T06:32:41.673Z,23.75
2022-08-04T06:35:10.527Z,23.91
2022-08-04T06:37:42.629Z,24.03
2022-08-04T06:40:30.664Z,24.11
2022-08-04T06:43:03.488Z,24.29
2022-08-04T06:45:34.785Z,24.38
2022-08-04T06:48:05.258Z,24.50
2022-08-04T06:51:25.112Z,24.65
2022-08-04T06:53:26.480Z,24.81
2022-08-04T06:55:56.557Z,24.91
2022-08-04T06:58:25.947Z,25.03
2022-08-04T07:01:01.943Z,25.05
2022-08-04T07:03:31.546Z,25.19
2022-08-04T07:06:06.063Z,25.28
2022-08-04T07:08:42.676Z,25.44
2022-08-04T07:11:12.115Z,25.57
2022-08-04T07:13:45.045Z,25.70
2022-08-04T07:16:15.891Z,25.79
2022-08-04T07:18:43.900Z,25.97
2022-08-04T07:21:21.194Z,26.10
2022-08-04T07:23:49.409Z,26.26
2022-08-04T07:26:19.262Z,26.32
2022-08-04T07:28:47.313Z,26.41
2022-08-04T07:31:34.427Z,26.51
2022-08-04T07:34:20.626Z,26.69
2022-08-04T07:36:56.278Z,26.78
2022-08-04T07:39:29.559Z,26.83
2022-08-04T07:42:02.664Z,26.93
2022-08-04T07:44:34.807Z,27.01
2022-08-04T07:47:06.084Z,27.16
2022-08-04T07:49:55.964Z,27.22
2022-08-04T07:52:22.553Z,27.29
2022-08-04T07:54:51.489Z,27.28
2022-08-04T07:57:40.714Z,27.38
2022-08-04T08:00:09.807Z,27.51
2022-08-04T08:02:39.012Z,27.68
2022-08-04T08:05:10.697Z,27.75
2022-08-04T08:07:50.393Z,27.85
2022-08-04T08:10:23.245Z,28.02
2022-08-04T08:12:52.833Z,28.08
2022-08-04T08:15:22.343Z,28.19
2022-08-04T08:17:59.680Z,28.24
2022-08-04T08:20:31.330Z,28.37
2022-08-04T08:23:02.224Z,28.41
2022-08-04T08:25:33.920Z,28.54
2022-08-04T08:28:05.511Z,28.69
2022-08-04T08:30:34.566Z,28.79
2022-08-04T08:33:12.506Z,28.87
2022-08-04T08:35:56.021Z,28.93
2022-08-04T08:38:49.674Z,29.05
2022-08-04T08:41:35.906Z,29.23
2022-08-04T08:44:43.654Z,29.29
2022-08-04T08:48:11.179Z,29.42
2022-08-04T08:51:11.518Z,29.56
2022-08-04T08:54:35.128Z,29.75
2022-08-04T08:57:23.432Z,29.89
2022-08-04T09:00:31.580Z,30.06
2022-08-04T09:03:46.671Z,30.15
2022-08-04T09:06:51.062Z,30.28
2022-08-04T09:09:48.265Z,30.45
2022-08-04T09:12:41.716Z,30.60
2022-08-04T09:15:15.929Z,30.73
2022-08-04T09:17:50.225Z,30.82
2022-08-04T09:20:37.315Z,31.00
2022-08-04T09:23:14.098Z,31.31
2022-08-04T09:25:58.417Z,31.66
2022-08-04T09:28:52.952Z,34.67
2022-08-04T09:31:52.904Z,42.97
2022-08-04T09:35:03.488Z,50.73
2022-08-04T09:37:54.989Z,55.17
2022-08-04T09:40:55.206Z,58.57
2022-08-04T09:44:42.224Z,61.44
2022-08-04T09:46:51.704Z,63.61
2022-08-04T09:50:02.535Z,65.20
2022-08-04T09:53:16.813Z,66.00
2022-08-04T09:56:03.906Z,67.92
2022-08-04T09:58:55.653Z,68.53
2022-08-04T10:01:28.669Z,67.67
2022-08-04T10:04:02.279Z,69.65
2022-08-04T10:06:53.717Z,70.09
2022-08-04T10:09:57.711Z,69.95
2022-08-04T10:12:24.783Z,70.96
2022-08-04T10:15:06.573Z,71.28
2022-08-04T10:18:34.015Z,71.89
2022-08-04T10:21:31.720Z,71.33
2022-08-04T10:24:12.676Z,72.13
2022-08-04T10:27:09.799Z,72.64
2022-08-04T10:29:45.805Z,73.14
2022-08-04T10:32:32.045Z,73.23
2022-08-04T10:35:13.414Z,73.48
2022-08-04T10:38:10.288Z,73.73
2022-08-04T10:40:47.630Z,74.09
2022-08-04T10:43:59.132Z,73.38
2022-08-04T10:46:39.750Z,73.75
2022-08-04T10:49:23.962Z,73.20
2022-08-04T10:52:03.416Z,72.90
2022-08-04T10:55:01.313Z,66.23
2022-08-04T10:57:52.147Z,59.57
2022-08-04T11:00:25.384Z,55.80
2022-08-04T11:03:09.041Z,52.74
2022-08-04T11:05:53.255Z,50.03
2022-08-04T11:08:35.539Z,47.81
2022-08-04T11:12:00.833Z,45.86
2022-08-04T11:14:33.359Z,44.13
2022-08-04T11:17:35.324Z,43.16
2022-08-04T11:20:35.720Z,42.21
2022-08-04T11:23:11.069Z,41.34
2022-08-04T11:26:04.970Z,40.44
2022-08-04T11:28:55.844Z,39.67
2022-08-04T11:31:39.372Z,39.13
2022-08-04T11:34:28.196Z,38.69
2022-08-04T11:37:28.385Z,38.27
2022-08-04T11:40:13.867Z,38.08
2022-08-04T11:42:55.312Z,38.05
2022-08-04T11:45:45.972Z,37.88
2022-08-04T11:48:36.021Z,37.68
2022-08-04T11:51:06.998Z,37.48
2022-08-04T11:53:38.981Z,37.30
2022-08-04T11:56:13.566Z,37.13
2022-08-04T11:58:56.874Z,37.17
2022-08-04T12:02:21.243Z,37.04
2022-08-04T12:05:00.026Z,37.02
2022-08-04T12:08:09.372Z,37.02
2022-08-04T12:11:23.998Z,37.05
2022-08-04T12:14:15.291Z,36.98
2022-08-04T12:16:52.161Z,36.99
2022-08-04T12:19:37.352Z,36.93
2022-08-04T12:22:32.635Z,37.08
2022-08-04T12:25:16.390Z,37.18
2022-08-04T12:27:52.236Z,37.10
2022-08-04T12:30:59.637Z,37.02
2022-08-04T12:33:23.160Z,36.93
2022-08-04T12:36:42.561Z,36.62
2022-08-04T12:39:20.486Z,36.52
2022-08-04T12:42:16.016Z,36.41
2022-08-04T12:44:54.210Z,36.29
2022-08-04T12:47:29.711Z,36.18
2022-08-04T12:50:05.074Z,36.20
2022-08-04T12:53:01.486Z,36.34
2022-08-04T12:55:34.381Z,36.41
2022-08-04T12:58:11.880Z,36.40
2022-08-04T13:00:42.058Z,36.38
2022-08-04T13:03:17.567Z,36.23
2022-08-04T13:05:46.873Z,36.24
2022-08-04T13:08:20.050Z,36.20
2022-08-04T13:10:52.281Z,36.23
2022-08-04T13:13:31.765Z,36.16
2022-08-04T13:16:11.459Z,36.14
2022-08-04T13:18:49.734Z,36.17
2022-08-04T13:21:49.987Z,36.08
2022-08-04T13:24:21.872Z,36.00
2022-08-04T13:27:09.415Z,35.95
2022-08-04T13:29:59.973Z,35.93
2022-08-04T13:32:34.307Z,35.83
2022-08-04T13:35:04.760Z,36.01
2022-08-04T13:37:39.506Z,36.20
2022-08-04T13:40:15.381Z,36.15
2022-08-04T13:42:48.258Z,36.27
2022-08-04T13:45:21.810Z,36.29
2022-08-04T13:47:52.275Z,36.43
2022-08-04T13:50:27.398Z,36.45
2022-08-04T13:52:59.793Z,36.41
2022-08-04T13:55:34.065Z,36.32
2022-08-04T13:58:24.579Z,36.16
2022-08-04T14:01:03.375Z,36.22
2022-08-04T14:03:54.279Z,36.19
2022-08-04T14:06:28.678Z,36.03
2022-08-04T14:09:19.785Z,35.89
2022-08-04T14:12:39.058Z,35.82
2022-08-04T14:15:02.724Z,35.60
2022-08-04T14:17:30.857Z,35.41
2022-08-04T14:20:02.111Z,35.39
2022-08-04T14:22:35.297Z,35.48
2022-08-04T14:25:17.916Z,35.41
2022-08-04T14:27:55.226Z,35.43
2022-08-04T14:30:37.056Z,35.22
2022-08-04T14:34:01.877Z,35.22
2022-08-04T14:36:01.507Z,35.16
2022-08-04T14:38:56.397Z,35.06
2022-08-04T14:41:32.754Z,34.91
2022-08-04T14:44:03.725Z,34.85
2022-08-04T14:46:36.652Z,34.88
2022-08-04T14:49:12.993Z,34.87
2022-08-04T14:52:05.845Z,34.74
2022-08-04T14:54:35.556Z,34.72
2022-08-04T14:57:06.752Z,34.65
2022-08-04T14:59:59.444Z,34.52
2022-08-04T15:02:30.535Z,34.55
2022-08-04T15:04:59.372Z,34.40
2022-08-04T15:07:47.309Z,34.42
2022-08-04T15:10:15.026Z,34.32
2022-08-04T15:12:42.821Z,34.23
2022-08-04T15:15:35.249Z,34.18
2022-08-04T15:17:59.369Z,34.15
2022-08-04T15:20:27.354Z,34.23
2022-08-04T15:22:54.672Z,34.21
2022-08-04T15:25:22.170Z,34.22
2022-08-04T15:27:51.828Z,34.23
2022-08-04T15:30:19.409Z,34.24
2022-08-04T15:32:57.403Z,34.18
2022-08-04T15:35:35.127Z,34.18
2022-08-04T15:38:27.668Z,34.01
2022-08-04T15:41:12.093Z,33.93
2022-08-04T15:44:16.951Z,33.88
2022-08-04T15:47:15.242Z,33.85
2022-08-04T15:49:44.716Z,33.85
2022-08-04T15:52:16.858Z,33.76
2022-08-04T15:54:51.994Z,33.65
2022-08-04T15:58:22.568Z,33.41
2022-08-04T16:00:49.874Z,33.23
2022-08-04T16:03:58.247Z,33.07
2022-08-04T16:06:22.845Z,32.95
2022-08-04T16:08:57.959Z,32.94
2022-08-04T16:11:31.203Z,33.00
2022-08-04T16:13:59.675Z,32.95
2022-08-04T16:16:28.997Z,32.91
2022-08-04T16:19:05.615Z,32.86
2022-08-04T16:22:00.299Z,32.78
2022-08-04T16:24:40.359Z,32.74
2022-08-04T16:27:13.309Z,32.63
2022-08-04T16:29:45.924Z,32.60
2022-08-04T16:32:23.854Z,32.59
2022-08-04T16:35:00.169Z,32.44
2022-08-04T16:37:38.311Z,32.50
2022-08-04T16:40:37.041Z,32.42
2022-08-04T16:43:19.199Z,32.37
2022-08-04T16:46:00.886Z,32.24
2022-08-04T16:48:36.715Z,32.23
2022-08-04T16:51:09.959Z,32.22
2022-08-04T16:54:03.690Z,32.17
2022-08-04T16:56:33.149Z,32.13
2022-08-04T16:59:13.001Z,32.11
2022-08-04T17:01:48.564Z,31.99
2022-08-04T17:04:16.978Z,31.99
2022-08-04T17:06:46.770Z,31.93
2022-08-04T17:09:18.062Z,31.79
2022-08-04T17:11:48.273Z,31.60
2022-08-04T17:14:23.922Z,31.52
2022-08-04T17:16:56.103Z,31.41
2022-08-04T17:19:26.553Z,31.27
2022-08-04T17:22:06.001Z,31.07
2022-08-04T17:24:38.365Z,31.07
2022-08-04T17:28:08.750Z,30.96
2022-08-04T17:29:55.243Z,30.87
2022-08-04T17:32:23.789Z,30.75
2022-08-04T17:34:59.829Z,30.55
2022-08-04T17:37:40.037Z,30.49
2022-08-04T17:40:18.664Z,30.33
2022-08-04T17:44:04.473Z,30.12
2022-08-04T17:46:45.418Z,29.89
2022-08-04T17:49:18.682Z,29.75
2022-08-04T17:52:06.016Z,29.88
2022-08-04T17:54:40.344Z,29.86
2022-08-04T17:57:21.419Z,29.63
2022-08-04T17:59:59.559Z,29.46
2022-08-04T18:02:32.624Z,29.26
2022-08-04T18:05:06.301Z,29.06
2022-08-04T18:08:35.354Z,28.92
2022-08-04T18:10:52.447Z,28.69
2022-08-04T18:13:28.456Z,28.44
2022-08-04T18:16:14.584Z,28.33
2022-08-04T18:19:11.366Z,28.11
2022-08-04T18:21:46.659Z,28.00
2022-08-04T18:27:17.318Z,27.56
2022-08-04T18:30:14.961Z,27.49
2022-08-04T18:32:33.727Z,27.44
2022-08-04T18:35:05.073Z,27.41
2022-08-04T18:38:05.368Z,27.38
2022-08-04T18:40:28.130Z,27.31
2022-08-04T18:43:00.603Z,27.24
2022-08-04T18:45:34.038Z,27.09
2022-08-04T18:48:04.115Z,26.95
2022-08-04T18:51:09.179Z,26.86
2022-08-04T18:53:35.708Z,26.70
2022-08-04T18:56:06.322Z,26.61
2022-08-04T18:58:47.463Z,26.56
2022-08-04T19:01:16.127Z,26.54
2022-08-04T19:03:46.346Z,26.55
2022-08-04T19:06:17.106Z,26.48
2022-08-04T19:08:54.678Z,26.44
2022-08-04T19:11:38.148Z,26.38
2022-08-04T19:14:13.754Z,26.29
2022-08-04T19:16:45.642Z,26.17
2022-08-04T19:19:14.019Z,26.15
2022-08-04T19:22:01.156Z,26.15
2022-08-04T19:24:34.073Z,26.10
2022-08-04T19:27:08.216Z,25.98
2022-08-04T19:29:44.684Z,25.91
2022-08-04T19:32:16.086Z,25.81
2022-08-04T19:34:47.402Z,25.77
2022-08-04T19:37:56.954Z,25.74
2022-08-04T19:40:10.070Z,25.63
2022-08-04T19:42:38.306Z,25.53
2022-08-04T19:45:08.361Z,25.51
2022-08-04T19:48:13.031Z,25.44
2022-08-04T19:50:24.564Z,25.37
2022-08-04T19:52:53.675Z,25.33
2022-08-04T19:55:36.691Z,25.29
2022-08-04T19:58:08.514Z,25.24
2022-08-04T20:00:38.689Z,25.21
2022-08-04T20:03:11.208Z,25.06
2022-08-04T20:05:55.330Z,25.01
2022-08-04T20:08:27.920Z,25.00
2022-08-04T20:10:56.314Z,24.99
2022-08-04T20:13:30.931Z,24.92
2022-08-04T20:16:28.809Z,24.85
2022-08-04T20:19:00.756Z,24.80
2022-08-04T20:21:53.857Z,24.81
2022-08-04T20:24:37.559Z,24.75
2022-08-04T20:27:21.960Z,24.67
2022-08-04T20:29:55.393Z,24.62
2022-08-04T20:32:26.728Z,24.52
2022-08-04T20:34:56.832Z,24.47
2022-08-04T20:37:54.773Z,24.47
2022-08-04T20:40:13.660Z,24.38
2022-08-04T20:42:44.887Z,24.38
2022-08-04T20:45:16.390Z,24.32
2022-08-04T20:47:54.174Z,24.31
2022-08-04T20:50:29.683Z,24.24
2022-08-04T20:52:58.959Z,24.17
2022-08-04T20:55:29.751Z,24.13
2022-08-04T20:58:01.347Z,24.12
2022-08-04T21:00:32.078Z,24.08
2022-08-04T21:03:00.152Z,24.05
2022-08-04T21:05:28.268Z,24.03
2022-08-04T21:07:57.596Z,24.04
2022-08-04T21:10:25.912Z,24.07
2022-08-04T21:12:54.368Z,24.08
2022-08-04T21:15:25.567Z,23.98
2022-08-04T21:17:59.287Z,23.95
2022-08-04T21:20:33.599Z,23.89
2022-08-04T21:23:05.149Z,23.87
2022-08-04T21:25:37.926Z,23.77
2022-08-04T21:28:10.365Z,23.72
2022-08-04T21:33:49.801Z,23.58
2022-08-04T21:36:19.783Z,23.52
2022-08-04T21:38:51.200Z,23.48
2022-08-04T21:41:25.074Z,23.40
2022-08-04T21:43:55.436Z,23.41
2022-08-04T21:46:23.138Z,23.34
2022-08-04T21:48:51.131Z,23.28
2022-08-04T21:54:17.327Z,23.14
2022-08-04T21:56:50.835Z,23.10
2022-08-04T21:59:28.513Z,23.08
2022-08-04T22:02:01.387Z,23.09
2022-08-04T22:04:30.577Z,23.12
2022-08-04T22:06:58.307Z,23.12
2022-08-04T22:09:31.217Z,23.05
2022-08-04T22:12:06.696Z,23.05
2022-08-04T22:14:39.533Z,23.04
2022-08-04T22:17:06.879Z,23.08
2022-08-04T22:19:55.353Z,23.05
2022-08-04T22:22:29.048Z,22.96
2022-08-04T22:25:13.148Z,22.84
2022-08-04T22:28:01.730Z,22.86
2022-08-04T22:30:36.905Z,22.89
2022-08-04T22:33:08.769Z,22.94
2022-08-04T22:35:49.113Z,22.97
2022-08-04T22:38:33.995Z,22.90
2022-08-04T22:41:11.812Z,22.83
2022-08-04T22:43:43.132Z,22.76
2022-08-04T22:46:21.707Z,22.62
2022-08-04T22:48:49.338Z,22.50
2022-08-04T22:51:17.175Z,22.51
2022-08-04T22:53:48.784Z,22.48
2022-08-04T22:56:38.145Z,22.42
2022-08-04T22:59:11.245Z,22.40
2022-08-04T23:01:59.535Z,22.33
2022-08-04T23:04:30.433Z,22.27
2022-08-04T23:06:58.158Z,22.22
2022-08-04T23:09:49.214Z,22.17
2022-08-04T23:12:28.922Z,22.20
2022-08-04T23:14:58.814Z,22.20
2022-08-04T23:17:28.663Z,22.26
2022-08-04T23:19:59.299Z,22.28
2022-08-04T23:22:41.738Z,22.29
2022-08-04T23:25:15.793Z,22.24
2022-08-04T23:27:51.594Z,22.15
2022-08-04T23:30:29.782Z,22.06
2022-08-04T23:32:58.229Z,22.01
2022-08-04T23:35:25.709Z,21.88
2022-08-04T23:37:57.308Z,21.82
2022-08-04T23:40:32.908Z,21.76
2022-08-04T23:43:12.368Z,21.67
2022-08-04T23:46:03.895Z,21.61
2022-08-04T23:48:32.462Z,21.54
2022-08-04T23:51:15.449Z,21.53
2022-08-04T23:54:02.577Z,21.58
2022-08-04T23:56:35.619Z,21.60
2022-08-04T23:59:05.163Z,21.62
